Tompkinsville, KY (42167)

4:17 AM CDT on August 28, 2014 (GMT -0500)
Center Point Ky | Change Station
CLOSE
Current Station
Personal Weather Station
Location: Tompkinsville, KY
Elevation: 740 ft
Nearby Weather Stations

Elev 740 ft 36.72 °N, 85.51 °W | Updated 16 seconds ago

Clear
Clear
70.3 °F
Feels Like 70.3 °F
N
0.0
Wind Variable Wind from NNW

Today
High -- | Low -- °F
--% Chance of Precip.
Yesterday
High -- | Low -- °F
Precip. -- in
6:10 AM 7:16 PM
Waxing Crescent, 7% visible
Pressure 30.04 in
Visibility 3.0 miles
Clouds Clear
Dew Point 70 °F
Humidity 99%
Rainfall 0.00 in
Snow Depth Not available.
UV 0 out of 12
Pollen 10.00 out of 12
Air Quality Not available.
Flu Activity Not available.
METAR KGLW 280855Z AUTO 00000KT 3SM BR CLR 21/21 A3004 RMK AO2 T02090209

More Conditions Fewer Conditions

Pressure 30.04 in
Visibility 3.0 miles
Clouds Clear
Dew Point 70 °F
Humidity 99%
Rainfall 0.00 in
Snow Depth Not available.
UV 0 out of 12
Pollen 10.00 out of 12
Air Quality Not available.
Flu Activity Not available.
METAR KGLW 280855Z AUTO 00000KT 3SM BR CLR 21/21 A3004 RMK AO2 T02090209

More Conditions Fewer Conditions

10-Day Weather Forecast

Almanac

Astronomy

Aug. 28, 2014 Rise Set
Actual Time 6:10 AM CDT 7:16 PM CDT
Civil Twilight 5:43 AM CDT 7:43 PM CDT
Nautical Twilight 5:12 AM CDT 8:14 PM CDT
Astronomical Twilight 4:39 AM CDT 8:47 PM CDT
Moon 8:56 AM CDT 8:46 PM CDT
Length of Visible Light 13h 59m
Length of Day
13h 06m
Tomorrow will be 2m 12s shorter.
Waxing Crescent, 7% of the Moon is Illuminated
Today
Waxing Crescent
Sep 2
First Quarter
Sep 8
Full
Sep 15
Last Quarter
Sep 24
New

Today's Extremes

State Highs State Lows

Community

WunderPhotos

Upload Photos

1,747,918 photos uploaded!

Nearby

Snow Depth

Station Depth Elevation
No new snow has been reported.

Earthquake Activity

City Distance Mag. Time & Date
No recent earthquake activity has been reported nearby.
Minimum magnitude displayed is 2.5.

Coastal Water Temperatures

Place Temperature
No Stations Reporting

Nearby Weather Stations